Brixworth, United Kingdom
Current Conditions -  °F | °C
As of 1:50 PM on Saturday 20 Dec 2014 (Local Time) from EGTC Reporting Station
Scattered Clouds Scattered Clouds  
Wind Chill: 42°   Ceiling: Unl
Heat Index: 48°   Visibility: 6mi
Dew Point: 39°   Wind: 15mph
Humidity: 71%   Direction: 280°W
Pressure: 30.27"   Gusts: NA
Location:  52.33°N, 0.9°W
Report Text: EGTC 201350Z 28013KT 9999 FEW028 SCT030 09/04 Q1025
Loading
Personal Weather Stations






























Interactive Weather Map New forecast layout! Learn more

10-Day Weather Forecast

Advertisements
Track Severe Weather on mobile